Accueil
METAR-TAF:

METAR-TAF

Aéroports :

Aéroport d'Épinal-Mirecourt

Épinal, France

latitude: 48-19-31N, longitude: 6-04-00E, altitude: 330 m

Observation

Le bulletin a été fait il y a 17 minutes, à 21:30 UTC
Vent 10 kt de nord-est
Température 0°C
Humidité 93%
Pression 1004 hPa
Visibilité 10 km ou plus
Nuages fragmentés à une hauteur de 3700 ft
Nuages fragmentés à une hauteur de 4500 ft
Ciel couvert à une hauteur de 14000 ft

METAR: LFSG 192130Z AUTO 05010KT 9999 BKN037 BKN045 OVC140 00/M01 Q1004

Heure: 22:47 (21:47 UTC)


TAF: absent

Observations et prévisions météorologiques de plus de 4000 aéroports (messages METAR et TAF).

Les stations disponibles sont représentées par des disques jaunes et rouges sur la carte.

Passer la souris dessus pour voir le nom de la station.

Cliquer dessus pour voir les observations et prévisions météorologiques.

Pour changer de carte: cliquez sur les boutons verts avec une croix noire pour zoomer, sur le bouton vert avec un tiret pour effectuer un zoom arrière, ou sur les flèches vertes pour les cartes adjacentes.


METAR-TAF: